sensor_id;sensor_type;location;lat;lon;timestamp;pressure;altitude;pressure_sealevel;temperature;humidity
60705;BME280;46545;38.014;-7.874;2024-02-16T00:01:24;99461.47;;;11.27;100.00
60705;BME280;46545;38.014;-7.874;2024-02-16T00:03:26;99465.75;;;11.28;100.00
60705;BME280;46545;38.014;-7.874;2024-02-16T00:05:27;99463.31;;;11.26;100.00
60705;BME280;46545;38.014;-7.874;2024-02-16T00:07:27;99465.97;;;11.26;100.00
60705;BME280;46545;38.014;-7.874;2024-02-16T00:09:28;99467.06;;;11.25;100.00
60705;BME280;46545;38.014;-7.874;2024-02-16T00:11:29;99463.78;;;11.23;100.00
60705;BME280;46545;38.014;-7.874;2024-02-16T00:13:30;99454.56;;;11.19;100.00
60705;BME280;46545;38.014;-7.874;2024-02-16T00:15:30;99452.34;;;11.16;100.00
60705;BME280;46545;38.014;-7.874;2024-02-16T00:17:31;99462.53;;;11.14;100.00
60705;BME280;46545;38.014;-7.874;2024-02-16T00:19:31;99452.59;;;11.15;100.00
60705;BME280;46545;38.014;-7.874;2024-02-16T00:21:32;99453.06;;;11.11;100.00
60705;BME280;46545;38.014;-7.874;2024-02-16T00:23:33;99452.47;;;11.09;100.00
60705;BME280;46545;38.014;-7.874;2024-02-16T00:25:34;99458.91;;;11.08;100.00
60705;BME280;46545;38.014;-7.874;2024-02-16T00:27:34;99462.41;;;11.09;100.00
60705;BME280;46545;38.014;-7.874;2024-02-16T00:29:35;99452.59;;;11.03;100.00
60705;BME280;46545;38.014;-7.874;2024-02-16T00:31:36;99457.28;;;10.96;100.00
60705;BME280;46545;38.014;-7.874;2024-02-16T00:33:37;99447.59;;;10.95;100.00
60705;BME280;46545;38.014;-7.874;2024-02-16T00:35:37;99443.88;;;10.96;100.00
60705;BME280;46545;38.014;-7.874;2024-02-16T00:37:38;99448.53;;;11.00;100.00
60705;BME280;46545;38.014;-7.874;2024-02-16T00:39:39;99456.09;;;11.03;100.00
60705;BME280;46545;38.014;-7.874;2024-02-16T00:41:43;99466.38;;;11.06;100.00
60705;BME280;46545;38.014;-7.874;2024-02-16T00:43:43;99468.00;;;11.07;100.00
60705;BME280;46545;38.014;-7.874;2024-02-16T00:45:45;99465.31;;;11.07;100.00
60705;BME280;46545;38.014;-7.874;2024-02-16T00:47:46;99472.78;;;11.05;100.00
60705;BME280;46545;38.014;-7.874;2024-02-16T00:49:46;99479.91;;;11.00;100.00
60705;BME280;46545;38.014;-7.874;2024-02-16T00:51:47;99471.72;;;10.95;100.00
60705;BME280;46545;38.014;-7.874;2024-02-16T00:53:48;99469.97;;;10.88;100.00
60705;BME280;46545;38.014;-7.874;2024-02-16T00:55:49;99472.06;;;10.86;100.00
60705;BME280;46545;38.014;-7.874;2024-02-16T00:57:50;99476.84;;;10.84;100.00
60705;BME280;46545;38.014;-7.874;2024-02-16T00:59:50;99476.84;;;10.84;100.00
60705;BME280;46545;38.014;-7.874;2024-02-16T01:01:51;99478.97;;;10.82;100.00
60705;BME280;46545;38.014;-7.874;2024-02-16T01:03:52;99484.31;;;10.82;100.00
60705;BME280;46545;38.014;-7.874;2024-02-16T01:05:53;99488.06;;;10.81;100.00
60705;BME280;46545;38.014;-7.874;2024-02-16T01:07:53;99485.13;;;10.83;100.00
60705;BME280;46545;38.014;-7.874;2024-02-16T01:09:54;99479.53;;;10.84;100.00
60705;BME280;46545;38.014;-7.874;2024-02-16T01:11:56;99478.38;;;10.80;100.00
60705;BME280;46545;38.014;-7.874;2024-02-16T01:13:57;99490.97;;;10.80;100.00
60705;BME280;46545;38.014;-7.874;2024-02-16T01:15:58;99484.78;;;10.79;100.00
60705;BME280;46545;38.014;-7.874;2024-02-16T01:17:58;99485.03;;;10.78;100.00
60705;BME280;46545;38.014;-7.874;2024-02-16T01:20:00;99491.91;;;10.74;100.00
60705;BME280;46545;38.014;-7.874;2024-02-16T01:22:01;99485.81;;;10.66;100.00
60705;BME280;46545;38.014;-7.874;2024-02-16T01:24:02;99499.22;;;10.66;100.00
60705;BME280;46545;38.014;-7.874;2024-02-16T01:26:02;99500.72;;;10.62;100.00
60705;BME280;46545;38.014;-7.874;2024-02-16T01:28:03;99494.78;;;10.60;100.00
60705;BME280;46545;38.014;-7.874;2024-02-16T01:30:05;99501.41;;;10.58;100.00
60705;BME280;46545;38.014;-7.874;2024-02-16T01:32:05;99504.09;;;10.58;100.00
60705;BME280;46545;38.014;-7.874;2024-02-16T01:34:06;99504.09;;;10.58;100.00
60705;BME280;46545;38.014;-7.874;2024-02-16T01:36:07;99510.25;;;10.58;100.00
60705;BME280;46545;38.014;-7.874;2024-02-16T01:38:08;99509.69;;;10.56;100.00
60705;BME280;46545;38.014;-7.874;2024-02-16T01:40:09;99514.59;;;10.59;100.00
60705;BME280;46545;38.014;-7.874;2024-02-16T01:42:19;99523.22;;;10.61;100.00
60705;BME280;46545;38.014;-7.874;2024-02-16T01:44:20;99517.84;;;10.61;100.00
60705;BME280;46545;38.014;-7.874;2024-02-16T01:46:21;99518.88;;;10.60;100.00
60705;BME280;46545;38.014;-7.874;2024-02-16T01:48:23;99522.63;;;10.59;100.00
60705;BME280;46545;38.014;-7.874;2024-02-16T01:50:24;99534.84;;;10.55;100.00
60705;BME280;46545;38.014;-7.874;2024-02-16T01:52:25;99534.03;;;10.55;100.00
60705;BME280;46545;38.014;-7.874;2024-02-16T01:54:26;99544.41;;;10.51;100.00
60705;BME280;46545;38.014;-7.874;2024-02-16T01:56:27;99544.88;;;10.48;100.00
60705;BME280;46545;38.014;-7.874;2024-02-16T01:58:28;99543.00;;;10.48;100.00
60705;BME280;46545;38.014;-7.874;2024-02-16T02:00:29;99543.69;;;10.44;100.00
60705;BME280;46545;38.014;-7.874;2024-02-16T02:02:30;99540.44;;;10.42;100.00
60705;BME280;46545;38.014;-7.874;2024-02-16T02:04:30;99540.66;;;10.40;100.00
60705;BME280;46545;38.014;-7.874;2024-02-16T02:06:31;99545.41;;;10.38;100.00
60705;BME280;46545;38.014;-7.874;2024-02-16T02:08:32;99547.28;;;10.38;100.00
60705;BME280;46545;38.014;-7.874;2024-02-16T02:10:33;99539.84;;;10.40;100.00
60705;BME280;46545;38.014;-7.874;2024-02-16T02:12:33;99544.94;;;10.41;100.00
60705;BME280;46545;38.014;-7.874;2024-02-16T02:14:34;99550.66;;;10.45;100.00
60705;BME280;46545;38.014;-7.874;2024-02-16T02:16:34;99546.13;;;10.45;100.00
60705;BME280;46545;38.014;-7.874;2024-02-16T02:18:35;99546.50;;;10.49;100.00
60705;BME280;46545;38.014;-7.874;2024-02-16T02:20:36;99542.53;;;10.52;100.00
60705;BME280;46545;38.014;-7.874;2024-02-16T02:22:37;99543.34;;;10.52;100.00
60705;BME280;46545;38.014;-7.874;2024-02-16T02:24:38;99541.25;;;10.54;100.00
60705;BME280;46545;38.014;-7.874;2024-02-16T02:26:39;99546.38;;;10.56;100.00
60705;BME280;46545;38.014;-7.874;2024-02-16T02:28:40;99548.84;;;10.57;100.00
60705;BME280;46545;38.014;-7.874;2024-02-16T02:30:40;99547.56;;;10.60;100.00
60705;BME280;46545;38.014;-7.874;2024-02-16T02:32:41;99552.22;;;10.64;100.00
60705;BME280;46545;38.014;-7.874;2024-02-16T02:34:42;99555.97;;;10.63;100.00
60705;BME280;46545;38.014;-7.874;2024-02-16T02:36:43;99559.69;;;10.62;100.00
60705;BME280;46545;38.014;-7.874;2024-02-16T02:38:44;99558.88;;;10.62;100.00
60705;BME280;46545;38.014;-7.874;2024-02-16T02:40:45;99557.25;;;10.61;100.00
60705;BME280;46545;38.014;-7.874;2024-02-16T02:42:45;99557.84;;;10.63;100.00
60705;BME280;46545;38.014;-7.874;2024-02-16T02:44:46;99559.69;;;10.62;100.00
60705;BME280;46545;38.014;-7.874;2024-02-16T02:46:50;99561.91;;;10.65;100.00
60705;BME280;46545;38.014;-7.874;2024-02-16T02:48:51;99556.56;;;10.65;100.00
60705;BME280;46545;38.014;-7.874;2024-02-16T02:50:52;99566.59;;;10.70;100.00
60705;BME280;46545;38.014;-7.874;2024-02-16T02:52:52;99573.44;;;10.66;100.00
60705;BME280;46545;38.014;-7.874;2024-02-16T02:54:53;99566.22;;;10.66;100.00
60705;BME280;46545;38.014;-7.874;2024-02-16T02:56:53;99580.69;;;10.65;100.00
60705;BME280;46545;38.014;-7.874;2024-02-16T02:58:54;99580.09;;;10.63;100.00
60705;BME280;46545;38.014;-7.874;2024-02-16T03:00:55;99574.13;;;10.61;100.00
60705;BME280;46545;38.014;-7.874;2024-02-16T03:02:56;99573.34;;;10.61;100.00
60705;BME280;46545;38.014;-7.874;2024-02-16T03:04:57;99571.31;;;10.56;100.00
60705;BME280;46545;38.014;-7.874;2024-02-16T03:06:57;99579.94;;;10.58;100.00
60705;BME280;46545;38.014;-7.874;2024-02-16T03:08:58;99568.19;;;10.59;100.00
60705;BME280;46545;38.014;-7.874;2024-02-16T03:10:59;99570.88;;;10.59;100.00
60705;BME280;46545;38.014;-7.874;2024-02-16T03:13:01;99574.13;;;10.61;100.00
60705;BME280;46545;38.014;-7.874;2024-02-16T03:15:03;99568.19;;;10.59;100.00
60705;BME280;46545;38.014;-7.874;2024-02-16T03:17:04;99570.88;;;10.59;100.00
60705;BME280;46545;38.014;-7.874;2024-02-16T03:19:06;99568.78;;;10.61;100.00
60705;BME280;46545;38.014;-7.874;2024-02-16T03:21:13;99564.81;;;10.64;100.00
60705;BME280;46545;38.014;-7.874;2024-02-16T03:23:14;99566.22;;;10.66;100.00
60705;BME280;46545;38.014;-7.874;2024-02-16T03:25:14;99570.75;;;10.66;100.00
60705;BME280;46545;38.014;-7.874;2024-02-16T03:27:15;99571.00;;;10.64;100.00
60705;BME280;46545;38.014;-7.874;2024-02-16T03:29:16;99565.63;;;10.64;100.00
60705;BME280;46545;38.014;-7.874;2024-02-16T03:31:21;99562.13;;;10.64;100.00
60705;BME280;46545;38.014;-7.874;2024-02-16T03:33:22;99567.28;;;10.65;100.00
60705;BME280;46545;38.014;-7.874;2024-02-16T03:35:23;99568.69;;;10.68;100.00
60705;BME280;46545;38.014;-7.874;2024-02-16T03:37:25;99580.00;;;10.70;100.00
60705;BME280;46545;38.014;-7.874;2024-02-16T03:39:25;99577.09;;;10.72;100.00
60705;BME280;46545;38.014;-7.874;2024-02-16T03:41:26;99566.16;;;10.73;100.00
60705;BME280;46545;38.014;-7.874;2024-02-16T03:43:27;99569.41;;;10.75;100.00
60705;BME280;46545;38.014;-7.874;2024-02-16T03:45:27;99568.56;;;10.75;100.00
60705;BME280;46545;38.014;-7.874;2024-02-16T03:47:28;99564.28;;;10.74;100.00
60705;BME280;46545;38.014;-7.874;2024-02-16T03:49:29;99548.78;;;10.76;100.00
60705;BME280;46545;38.014;-7.874;2024-02-16T03:51:29;99544.69;;;10.73;100.00
60705;BME280;46545;38.014;-7.874;2024-02-16T03:53:30;99563.22;;;10.75;100.00
60705;BME280;46545;38.014;-7.874;2024-02-16T03:55:30;99576.16;;;10.78;100.00
60705;BME280;46545;38.014;-7.874;2024-02-16T03:57:39;99575.69;;;10.81;100.00
60705;BME280;46545;38.014;-7.874;2024-02-16T03:59:40;99581.75;;;10.76;100.00
60705;BME280;46545;38.014;-7.874;2024-02-16T04:01:41;99572.69;;;10.77;100.00
60705;BME280;46545;38.014;-7.874;2024-02-16T04:03:42;99567.06;;;10.79;100.00
60705;BME280;46545;38.014;-7.874;2024-02-16T04:05:43;99561.69;;;10.79;100.00
60705;BME280;46545;38.014;-7.874;2024-02-16T04:07:43;99550.97;;;10.79;100.00
60705;BME280;46545;38.014;-7.874;2024-02-16T04:09:44;99536.91;;;10.83;100.00
60705;BME280;46545;38.014;-7.874;2024-02-16T04:11:46;99528.59;;;10.85;100.00
60705;BME280;46545;38.014;-7.874;2024-02-16T04:13:47;99526.06;;;10.90;100.00
60705;BME280;46545;38.014;-7.874;2024-02-16T04:15:48;99530.59;;;11.01;100.00
60705;BME280;46545;38.014;-7.874;2024-02-16T04:17:49;99534.94;;;11.02;100.00
60705;BME280;46545;38.014;-7.874;2024-02-16T04:19:50;99523.72;;;11.05;100.00
60705;BME280;46545;38.014;-7.874;2024-02-16T04:21:50;99535.03;;;11.07;100.00
60705;BME280;46545;38.014;-7.874;2024-02-16T04:23:51;99533.78;;;11.10;100.00
60705;BME280;46545;38.014;-7.874;2024-02-16T04:25:52;99528.41;;;11.10;100.00
60705;BME280;46545;38.014;-7.874;2024-02-16T04:27:53;99525.84;;;11.15;100.00
60705;BME280;46545;38.014;-7.874;2024-02-16T04:29:54;99512.91;;;11.12;100.00
60705;BME280;46545;38.014;-7.874;2024-02-16T04:31:54;99517.78;;;11.15;100.00
60705;BME280;46545;38.014;-7.874;2024-02-16T04:33:55;99514.63;;;11.18;100.00
60705;BME280;46545;38.014;-7.874;2024-02-16T04:35:56;99530.63;;;11.25;100.00
60705;BME280;46545;38.014;-7.874;2024-02-16T04:37:56;99536.00;;;11.25;100.00
60705;BME280;46545;38.014;-7.874;2024-02-16T04:39:57;99537.03;;;11.24;100.00
60705;BME280;46545;38.014;-7.874;2024-02-16T04:41:58;99541.59;;;11.23;100.00
60705;BME280;46545;38.014;-7.874;2024-02-16T04:43:58;99539.34;;;11.20;100.00
60705;BME280;46545;38.014;-7.874;2024-02-16T04:45:59;99531.78;;;11.17;100.00
60705;BME280;46545;38.014;-7.874;2024-02-16T04:48:06;99523.97;;;11.16;100.00
60705;BME280;46545;38.014;-7.874;2024-02-16T04:50:07;99519.78;;;11.20;100.00
60705;BME280;46545;38.014;-7.874;2024-02-16T04:52:11;99546.00;;;11.18;100.00
60705;BME280;46545;38.014;-7.874;2024-02-16T04:54:12;99554.41;;;11.21;100.00
60705;BME280;46545;38.014;-7.874;2024-02-16T04:56:12;99573.56;;;11.25;100.00
60705;BME280;46545;38.014;-7.874;2024-02-16T04:58:13;99580.31;;;11.27;100.00
60705;BME280;46545;38.014;-7.874;2024-02-16T05:00:14;99583.59;;;11.29;100.00
60705;BME280;46545;38.014;-7.874;2024-02-16T05:02:15;99584.53;;;11.35;100.00
60705;BME280;46545;38.014;-7.874;2024-02-16T05:04:15;99579.75;;;11.37;100.00
60705;BME280;46545;38.014;-7.874;2024-02-16T05:06:17;99574.38;;;11.37;100.00
60705;BME280;46545;38.014;-7.874;2024-02-16T05:08:18;99573.88;;;11.40;100.00
60705;BME280;46545;38.014;-7.874;2024-02-16T05:10:18;99574.84;;;11.46;100.00
60705;BME280;46545;38.014;-7.874;2024-02-16T05:12:20;99593.97;;;11.49;100.00
60705;BME280;46545;38.014;-7.874;2024-02-16T05:14:21;99600.59;;;11.47;100.00
60705;BME280;46545;38.014;-7.874;2024-02-16T05:16:22;99591.75;;;11.46;100.00
60705;BME280;46545;38.014;-7.874;2024-02-16T05:18:23;99582.31;;;11.44;100.00
60705;BME280;46545;38.014;-7.874;2024-02-16T05:20:25;99595.50;;;11.45;100.00
60705;BME280;46545;38.014;-7.874;2024-02-16T05:22:26;99587.31;;;11.40;100.00
60705;BME280;46545;38.014;-7.874;2024-02-16T05:24:26;99573.66;;;11.42;100.00
60705;BME280;46545;38.014;-7.874;2024-02-16T05:26:27;99562.13;;;11.41;100.00
60705;BME280;46545;38.014;-7.874;2024-02-16T05:28:28;99561.78;;;11.49;100.00
60705;BME280;46545;38.014;-7.874;2024-02-16T05:30:29;99562.34;;;11.51;100.00
60705;BME280;46545;38.014;-7.874;2024-02-16T05:32:30;99568.88;;;11.44;100.00
60705;BME280;46545;38.014;-7.874;2024-02-16T05:34:31;99569.09;;;11.42;100.00
60705;BME280;46545;38.014;-7.874;2024-02-16T05:36:37;99569.59;;;11.39;100.00
60705;BME280;46545;38.014;-7.874;2024-02-16T05:38:38;99558.50;;;11.36;100.00
60705;BME280;46545;38.014;-7.874;2024-02-16T05:40:43;99557.56;;;11.30;100.00
60705;BME280;46545;38.014;-7.874;2024-02-16T05:42:54;99553.72;;;11.26;100.00
60705;BME280;46545;38.014;-7.874;2024-02-16T05:44:58;99561.97;;;11.24;100.00
60705;BME280;46545;38.014;-7.874;2024-02-16T05:46:58;99552.75;;;11.20;100.00
60705;BME280;46545;38.014;-7.874;2024-02-16T05:48:59;99555.72;;;11.19;100.00
60705;BME280;46545;38.014;-7.874;2024-02-16T05:51:03;99563.03;;;11.11;100.00
60705;BME280;46545;38.014;-7.874;2024-02-16T05:53:05;99579.72;;;11.14;100.00
60705;BME280;46545;38.014;-7.874;2024-02-16T05:55:07;99585.06;;;11.14;100.00
60705;BME280;46545;38.014;-7.874;2024-02-16T05:57:08;99578.31;;;11.11;100.00
60705;BME280;46545;38.014;-7.874;2024-02-16T05:59:09;99574.09;;;11.03;100.00
60705;BME280;46545;38.014;-7.874;2024-02-16T06:01:10;99585.19;;;11.07;100.00
60705;BME280;46545;38.014;-7.874;2024-02-16T06:03:13;99585.19;;;11.07;100.00
60705;BME280;46545;38.014;-7.874;2024-02-16T06:05:14;99582.28;;;11.08;100.00
60705;BME280;46545;38.014;-7.874;2024-02-16T06:07:15;99575.63;;;11.11;100.00
60705;BME280;46545;38.014;-7.874;2024-02-16T06:09:15;99560.25;;;11.06;100.00
60705;BME280;46545;38.014;-7.874;2024-02-16T06:11:16;99577.28;;;11.12;100.00
60705;BME280;46545;38.014;-7.874;2024-02-16T06:13:18;99585.06;;;11.14;100.00
60705;BME280;46545;38.014;-7.874;2024-02-16T06:15:19;99592.53;;;11.11;100.00
60705;BME280;46545;38.014;-7.874;2024-02-16T06:17:20;99590.09;;;11.10;100.00
60705;BME280;46545;38.014;-7.874;2024-02-16T06:19:21;99609.13;;;11.08;100.00
60705;BME280;46545;38.014;-7.874;2024-02-16T06:21:21;99608.97;;;11.03;100.00
60705;BME280;46545;38.014;-7.874;2024-02-16T06:23:23;99617.00;;;11.03;100.00
60705;BME280;46545;38.014;-7.874;2024-02-16T06:25:24;99615.63;;;11.01;100.00
60705;BME280;46545;38.014;-7.874;2024-02-16T06:27:25;99620.41;;;10.99;100.00
60705;BME280;46545;38.014;-7.874;2024-02-16T06:29:26;99628.66;;;10.97;100.00
60705;BME280;46545;38.014;-7.874;2024-02-16T06:31:26;99628.91;;;10.96;100.00
60705;BME280;46545;38.014;-7.874;2024-02-16T06:33:27;99624.34;;;10.96;100.00
60705;BME280;46545;38.014;-7.874;2024-02-16T06:35:29;99633.00;;;10.98;100.00
60705;BME280;46545;38.014;-7.874;2024-02-16T06:37:30;99634.88;;;10.98;100.00
60705;BME280;46545;38.014;-7.874;2024-02-16T06:39:32;99632.41;;;10.96;100.00
60705;BME280;46545;38.014;-7.874;2024-02-16T06:41:33;99631.22;;;10.92;100.00
60705;BME280;46545;38.014;-7.874;2024-02-16T06:43:33;99630.88;;;10.88;100.00
60705;BME280;46545;38.014;-7.874;2024-02-16T06:45:34;99629.56;;;10.91;100.00
60705;BME280;46545;38.014;-7.874;2024-02-16T06:47:36;99618.03;;;10.90;100.00
60705;BME280;46545;38.014;-7.874;2024-02-16T06:49:37;99616.44;;;10.89;100.00
60705;BME280;46545;38.014;-7.874;2024-02-16T06:51:37;99615.72;;;10.94;100.00
60705;BME280;46545;38.014;-7.874;2024-02-16T06:53:38;99607.53;;;10.89;100.00
60705;BME280;46545;38.014;-7.874;2024-02-16T06:55:39;99618.50;;;10.87;100.00
60705;BME280;46545;38.014;-7.874;2024-02-16T06:57:39;99636.81;;;10.90;100.00
60705;BME280;46545;38.014;-7.874;2024-02-16T06:59:40;99647.53;;;10.90;100.00
60705;BME280;46545;38.014;-7.874;2024-02-16T07:01:40;99659.31;;;10.89;100.00
60705;BME280;46545;38.014;-7.874;2024-02-16T07:03:43;99659.06;;;10.91;100.00
60705;BME280;46545;38.014;-7.874;2024-02-16T07:05:44;99658.47;;;10.89;100.00
60705;BME280;46545;38.014;-7.874;2024-02-16T07:07:44;99656.28;;;10.86;100.00
60705;BME280;46545;38.014;-7.874;2024-02-16T07:09:45;99665.59;;;10.83;100.00
60705;BME280;46545;38.014;-7.874;2024-02-16T07:11:46;99666.03;;;10.80;100.00
60705;BME280;46545;38.014;-7.874;2024-02-16T07:13:46;99669.78;;;10.79;100.00
60705;BME280;46545;38.014;-7.874;2024-02-16T07:15:47;99661.97;;;10.78;100.00
60705;BME280;46545;38.014;-7.874;2024-02-16T07:17:48;99660.78;;;10.74;100.00
60705;BME280;46545;38.014;-7.874;2024-02-16T07:19:48;99663.91;;;10.70;100.00
60705;BME280;46545;38.014;-7.874;2024-02-16T07:21:49;99671.13;;;10.70;100.00
60705;BME280;46545;38.014;-7.874;2024-02-16T07:23:50;99672.78;;;10.71;100.00
60705;BME280;46545;38.014;-7.874;2024-02-16T07:25:51;99682.22;;;10.74;100.00
60705;BME280;46545;38.014;-7.874;2024-02-16T07:27:55;99688.56;;;10.79;100.00
60705;BME280;46545;38.014;-7.874;2024-02-16T07:29:56;99705.81;;;10.83;100.00
60705;BME280;46545;38.014;-7.874;2024-02-16T07:31:57;99702.66;;;10.86;100.00
60705;BME280;46545;38.014;-7.874;2024-02-16T07:33:57;99705.34;;;10.86;100.00
60705;BME280;46545;38.014;-7.874;2024-02-16T07:35:58;99691.94;;;10.86;100.00
60705;BME280;46545;38.014;-7.874;2024-02-16T07:37:59;99683.69;;;10.88;100.00
60705;BME280;46545;38.014;-7.874;2024-02-16T07:39:59;99683.13;;;10.98;100.00
60705;BME280;46545;38.014;-7.874;2024-02-16T07:42:00;99683.78;;;10.93;100.00
60705;BME280;46545;38.014;-7.874;2024-02-16T07:44:01;99685.81;;;10.98;100.00
60705;BME280;46545;38.014;-7.874;2024-02-16T07:46:01;99701.81;;;11.04;100.00
60705;BME280;46545;38.014;-7.874;2024-02-16T07:48:05;99694.03;;;11.15;100.00
60705;BME280;46545;38.014;-7.874;2024-02-16T07:50:06;99696.13;;;11.24;100.00
60705;BME280;46545;38.014;-7.874;2024-02-16T07:52:06;99711.91;;;11.32;100.00
60705;BME280;46545;38.014;-7.874;2024-02-16T07:54:07;99704.81;;;11.38;100.00
60705;BME280;46545;38.014;-7.874;2024-02-16T07:56:08;99707.38;;;11.45;100.00
60705;BME280;46545;38.014;-7.874;2024-02-16T07:58:10;99705.41;;;11.52;100.00
60705;BME280;46545;38.014;-7.874;2024-02-16T08:00:11;99710.44;;;11.60;100.00
60705;BME280;46545;38.014;-7.874;2024-02-16T08:02:12;99705.09;;;11.72;100.00
60705;BME280;46545;38.014;-7.874;2024-02-16T08:04:15;99710.22;;;11.85;100.00
60705;BME280;46545;38.014;-7.874;2024-02-16T08:06:16;99706.63;;;12.03;100.00
60705;BME280;46545;38.014;-7.874;2024-02-16T08:08:22;99715.84;;;12.19;100.00
60705;BME280;46545;38.014;-7.874;2024-02-16T08:10:23;99728.81;;;12.34;100.00
60705;BME280;46545;38.014;-7.874;2024-02-16T08:12:26;99733.69;;;12.49;100.00
60705;BME280;46545;38.014;-7.874;2024-02-16T08:14:28;99736.66;;;12.64;100.00
60705;BME280;46545;38.014;-7.874;2024-02-16T08:16:29;99743.97;;;12.92;100.00
60705;BME280;46545;38.014;-7.874;2024-02-16T08:18:29;99736.97;;;13.37;100.00
60705;BME280;46545;38.014;-7.874;2024-02-16T08:20:30;99746.13;;;13.53;100.00
60705;BME280;46545;38.014;-7.874;2024-02-16T08:22:31;99738.31;;;13.85;100.00
60705;BME280;46545;38.014;-7.874;2024-02-16T08:24:33;99720.38;;;14.13;100.00
60705;BME280;46545;38.014;-7.874;2024-02-16T08:26:34;99717.72;;;14.35;100.00
60705;BME280;46545;38.014;-7.874;2024-02-16T08:28:35;99725.19;;;14.94;100.00
60705;BME280;46545;38.014;-7.874;2024-02-16T08:30:35;99732.34;;;15.05;100.00
60705;BME280;46545;38.014;-7.874;2024-02-16T08:32:41;99727.53;;;15.12;100.00
60705;BME280;46545;38.014;-7.874;2024-02-16T08:34:42;99715.34;;;15.37;100.00
60705;BME280;46545;38.014;-7.874;2024-02-16T08:36:46;99718.03;;;15.32;100.00
60705;BME280;46545;38.014;-7.874;2024-02-16T08:38:47;99721.88;;;15.41;100.00
60705;BME280;46545;38.014;-7.874;2024-02-16T08:40:47;99719.22;;;15.46;100.00
60705;BME280;46545;38.014;-7.874;2024-02-16T08:42:48;99722.50;;;15.48;100.00
60705;BME280;46545;38.014;-7.874;2024-02-16T08:44:49;99735.06;;;15.65;100.00
60705;BME280;46545;38.014;-7.874;2024-02-16T08:46:50;99730.09;;;16.31;100.00
60705;BME280;46545;38.014;-7.874;2024-02-16T08:48:51;99745.03;;;16.44;100.00
60705;BME280;46545;38.014;-7.874;2024-02-16T08:50:51;99749.78;;;16.17;100.00
60705;BME280;46545;38.014;-7.874;2024-02-16T08:52:52;99759.59;;;15.90;100.00
60705;BME280;46545;38.014;-7.874;2024-02-16T08:54:53;99766.69;;;16.02;100.00
60705;BME280;46545;38.014;-7.874;2024-02-16T08:56:54;99766.28;;;16.73;100.00
60705;BME280;46545;38.014;-7.874;2024-02-16T08:58:55;99766.78;;;17.69;100.00
60705;BME280;46545;38.014;-7.874;2024-02-16T09:00:56;99761.69;;;20.07;93.56
60705;BME280;46545;38.014;-7.874;2024-02-16T09:02:56;99773.63;;;22.30;67.67
60705;BME280;46545;38.014;-7.874;2024-02-16T09:04:58;99777.03;;;24.32;59.59
60705;BME280;46545;38.014;-7.874;2024-02-16T09:06:59;99783.94;;;25.62;52.65
60705;BME280;46545;38.014;-7.874;2024-02-16T09:09:00;99793.06;;;26.65;46.98
60705;BME280;46545;38.014;-7.874;2024-02-16T09:11:04;99789.47;;;27.87;42.62
60705;BME280;46545;38.014;-7.874;2024-02-16T09:13:05;99782.72;;;28.80;40.79
60705;BME280;46545;38.014;-7.874;2024-02-16T09:15:06;99785.13;;;29.46;39.53
60705;BME280;46545;38.014;-7.874;2024-02-16T09:17:07;99793.25;;;29.14;38.88
60705;BME280;46545;38.014;-7.874;2024-02-16T09:19:08;99796.94;;;28.94;37.95
60705;BME280;46545;38.014;-7.874;2024-02-16T09:21:08;99797.97;;;29.02;38.03
60705;BME280;46545;38.014;-7.874;2024-02-16T09:23:09;99804.66;;;29.25;38.96
60705;BME280;46545;38.014;-7.874;2024-02-16T09:25:10;99801.22;;;28.67;38.59
60705;BME280;46545;38.014;-7.874;2024-02-16T09:27:11;99787.59;;;26.56;42.24
60705;BME280;46545;38.014;-7.874;2024-02-16T09:29:19;99781.28;;;24.87;46.93
60705;BME280;46545;38.014;-7.874;2024-02-16T09:31:20;99785.09;;;23.38;51.64
60705;BME280;46545;38.014;-7.874;2024-02-16T09:33:22;99789.69;;;21.99;56.54
60705;BME280;46545;38.014;-7.874;2024-02-16T09:35:22;99792.91;;;20.92;63.28
60705;BME280;46545;38.014;-7.874;2024-02-16T09:37:23;99794.81;;;19.85;72.51
60705;BME280;46545;38.014;-7.874;2024-02-16T09:39:24;99800.50;;;18.94;81.28
60705;BME280;46545;38.014;-7.874;2024-02-16T09:41:27;99795.53;;;18.31;89.19
60705;BME280;46545;38.014;-7.874;2024-02-16T09:43:30;99800.13;;;18.26;91.76
60705;BME280;46545;38.014;-7.874;2024-02-16T09:45:32;99805.84;;;18.04;94.16
60705;BME280;46545;38.014;-7.874;2024-02-16T09:47:33;99807.50;;;17.84;96.80
60705;BME280;46545;38.014;-7.874;2024-02-16T09:49:35;99816.94;;;17.82;98.14
60705;BME280;46545;38.014;-7.874;2024-02-16T09:51:36;99827.81;;;17.92;98.93
60705;BME280;46545;38.014;-7.874;2024-02-16T09:53:38;99818.03;;;17.86;100.00
60705;BME280;46545;38.014;-7.874;2024-02-16T09:55:39;99809.34;;;17.68;100.00
60705;BME280;46545;38.014;-7.874;2024-02-16T09:57:40;99821.00;;;17.69;100.00
60705;BME280;46545;38.014;-7.874;2024-02-16T09:59:41;99816.94;;;17.82;100.00
60705;BME280;46545;38.014;-7.874;2024-02-16T10:01:42;99814.78;;;17.94;100.00
60705;BME280;46545;38.014;-7.874;2024-02-16T10:03:43;99832.44;;;17.97;99.92
60705;BME280;46545;38.014;-7.874;2024-02-16T10:05:44;99823.16;;;17.77;100.00
60705;BME280;46545;38.014;-7.874;2024-02-16T10:07:45;99829.09;;;17.48;100.00
60705;BME280;46545;38.014;-7.874;2024-02-16T10:09:46;99824.47;;;17.39;100.00
60705;BME280;46545;38.014;-7.874;2024-02-16T10:11:47;99836.06;;;17.24;100.00
60705;BME280;46545;38.014;-7.874;2024-02-16T10:13:58;99835.25;;;17.23;100.00
60705;BME280;46545;38.014;-7.874;2024-02-16T10:16:10;99834.44;;;17.28;100.00
60705;BME280;46545;38.014;-7.874;2024-02-16T10:18:11;99834.19;;;17.24;100.00
60705;BME280;46545;38.014;-7.874;2024-02-16T10:20:18;99830.13;;;17.32;100.00
60705;BME280;46545;38.014;-7.874;2024-02-16T10:22:18;99822.56;;;17.44;100.00
60705;BME280;46545;38.014;-7.874;2024-02-16T10:24:21;99813.16;;;17.67;100.00
60705;BME280;46545;38.014;-7.874;2024-02-16T10:26:22;99815.81;;;17.42;100.00